createdAt,value
2022-08-22T00:00:59.445Z,100566.94
2022-08-22T00:02:46.942Z,100567.78
2022-08-22T00:03:15.561Z,100567.09
2022-08-22T00:03:41.626Z,100577.69
2022-08-22T00:06:16.207Z,100587.97
2022-08-22T00:08:56.912Z,100587.16
2022-08-22T00:11:34.826Z,100569.56
2022-08-22T00:14:11.859Z,100574.94
2022-08-22T00:16:51.367Z,100574.81
2022-08-22T00:19:30.547Z,100559.03
2022-08-22T00:22:05.864Z,100564.28
2022-08-22T00:24:43.163Z,100561.56
2022-08-22T00:27:16.837Z,100556.22
2022-08-22T00:29:52.447Z,100552.72
2022-08-22T00:32:28.807Z,100546.63
2022-08-22T00:35:03.240Z,100558.00
2022-08-22T00:37:36.927Z,100551.88
2022-08-22T00:40:18.660Z,100557.38
2022-08-22T00:43:12.407Z,100566.44
2022-08-22T00:46:08.897Z,100564.25
2022-08-22T00:48:58.301Z,100561.84
2022-08-22T00:51:46.173Z,100551.53
2022-08-22T00:54:25.820Z,100562.06
2022-08-22T00:57:14.856Z,100556.06
2022-08-22T01:00:07.002Z,100561.75
2022-08-22T01:02:52.705Z,100560.81
2022-08-22T01:05:44.610Z,100544.50
2022-08-22T01:08:33.946Z,100545.81
2022-08-22T01:11:13.190Z,100556.59
2022-08-22T01:13:58.824Z,100551.13
2022-08-22T01:16:44.083Z,100554.72
2022-08-22T01:20:00.566Z,100552.94
2022-08-22T01:22:57.909Z,100543.50
2022-08-22T01:26:09.895Z,100536.53
2022-08-22T01:29:17.510Z,100547.50
2022-08-22T01:32:24.628Z,100573.47
2022-08-22T01:35:37.733Z,100570.13
2022-08-22T01:38:34.982Z,100564.34
2022-08-22T01:41:30.458Z,100565.47
2022-08-22T01:44:25.234Z,100550.03
2022-08-22T01:47:02.278Z,100545.50
2022-08-22T01:49:44.217Z,100543.84
2022-08-22T01:52:20.752Z,100528.38
2022-08-22T01:54:56.028Z,100527.66
2022-08-22T01:57:26.056Z,100541.75
2022-08-22T01:59:58.636Z,100549.00
2022-08-22T02:02:46.474Z,100533.75
2022-08-22T02:05:27.833Z,100535.13
2022-08-22T02:08:03.613Z,100541.31
2022-08-22T02:10:56.331Z,100546.59
2022-08-22T02:13:36.041Z,100543.84
2022-08-22T02:16:12.572Z,100551.63
2022-08-22T02:18:55.939Z,100556.88
2022-08-22T02:21:32.570Z,100541.13
2022-08-22T02:24:15.798Z,100541.13
2022-08-22T02:26:51.457Z,100535.84
2022-08-22T02:29:30.818Z,100535.63
2022-08-22T02:32:04.253Z,100520.59
2022-08-22T02:34:41.888Z,100515.44
2022-08-22T02:37:16.934Z,100513.53
2022-08-22T02:39:57.443Z,100507.56
2022-08-22T02:42:31.221Z,100511.75
2022-08-22T02:45:07.104Z,100518.81
2022-08-22T02:47:46.752Z,100522.41
2022-08-22T02:50:24.824Z,100517.13
2022-08-22T02:52:59.105Z,100512.81
2022-08-22T02:55:47.441Z,100519.78
2022-08-22T02:58:24.636Z,100513.53
2022-08-22T03:01:15.151Z,100516.16
2022-08-22T03:03:47.527Z,100523.84
2022-08-22T03:06:33.144Z,100520.50
2022-08-22T03:09:08.968Z,100505.56
2022-08-22T03:11:43.013Z,100502.19
2022-08-22T03:14:19.465Z,100514.28
2022-08-22T03:16:56.490Z,100527.31
2022-08-22T03:19:42.571Z,100528.06
2022-08-22T03:22:16.950Z,100542.16
2022-08-22T03:24:53.518Z,100536.75
2022-08-22T03:27:32.444Z,100516.56
2022-08-22T03:30:07.881Z,100527.72
2022-08-22T03:32:52.872Z,100534.88
2022-08-22T03:35:30.739Z,100534.25
2022-08-22T03:38:19.931Z,100512.91
2022-08-22T03:41:01.561Z,100502.31
2022-08-22T03:43:52.891Z,100493.69
2022-08-22T03:46:53.874Z,100487.69
2022-08-22T03:50:06.110Z,100504.31
2022-08-22T03:53:19.319Z,100522.19
2022-08-22T03:56:29.593Z,100525.44
2022-08-22T03:59:26.719Z,100531.03
2022-08-22T04:02:43.025Z,100527.78
2022-08-22T04:05:56.542Z,100523.03
2022-08-22T04:08:53.499Z,100517.69
2022-08-22T04:11:47.178Z,100519.91
2022-08-22T04:14:40.844Z,100522.41
2022-08-22T04:17:49.900Z,100515.59
2022-08-22T04:20:42.300Z,100519.91
2022-08-22T04:23:34.605Z,100514.97
2022-08-22T04:26:12.721Z,100521.91
2022-08-22T04:28:49.174Z,100521.69
2022-08-22T04:31:27.981Z,100516.09
2022-08-22T04:34:02.555Z,100509.91
2022-08-22T04:36:36.138Z,100506.56
2022-08-22T04:39:10.909Z,100499.72
2022-08-22T04:41:48.371Z,100504.88
2022-08-22T04:44:23.486Z,100512.66
2022-08-22T04:47:00.805Z,100526.41
2022-08-22T04:49:36.782Z,100534.28
2022-08-22T04:52:12.957Z,100536.72
2022-08-22T04:54:57.012Z,100532.28
2022-08-22T04:57:32.688Z,100532.28
2022-08-22T05:00:02.658Z,100532.28
2022-08-22T05:02:32.456Z,100534.94
2022-08-22T05:05:04.956Z,100533.28
2022-08-22T05:07:46.363Z,100541.34
2022-08-22T05:10:21.136Z,100550.81
2022-08-22T05:12:55.637Z,100550.69
2022-08-22T05:15:27.450Z,100542.59
2022-08-22T05:18:02.227Z,100550.59
2022-08-22T05:20:31.621Z,100554.78
2022-08-22T05:23:17.529Z,100554.56
2022-08-22T05:25:50.762Z,100550.25
2022-08-22T05:28:34.915Z,100554.06
2022-08-22T05:31:08.149Z,100547.00
2022-08-22T05:33:42.345Z,100553.31
2022-08-22T05:36:14.210Z,100551.66
2022-08-22T05:38:48.479Z,100552.06
2022-08-22T05:41:20.703Z,100547.56
2022-08-22T05:43:49.662Z,100540.81
2022-08-22T05:46:22.038Z,100536.50
2022-08-22T05:49:00.460Z,100534.63
2022-08-22T05:51:38.126Z,100538.06
2022-08-22T05:54:17.490Z,100534.06
2022-08-22T05:56:50.499Z,100533.25
2022-08-22T05:59:25.983Z,100536.28
2022-08-22T06:02:06.593Z,100546.97
2022-08-22T06:04:47.299Z,100546.09
2022-08-22T06:07:20.263Z,100552.81
2022-08-22T06:10:20.534Z,100550.09
2022-08-22T06:12:58.272Z,100553.69
2022-08-22T06:15:35.607Z,100551.06
2022-08-22T06:18:10.438Z,100558.09
2022-08-22T06:20:45.257Z,100556.81
2022-08-22T06:23:18.408Z,100563.78
2022-08-22T06:25:48.973Z,100560.59
2022-08-22T06:28:26.702Z,100561.53
2022-08-22T06:30:57.750Z,100553.25
2022-08-22T06:33:28.914Z,100551.13
2022-08-22T06:36:21.109Z,100548.22
2022-08-22T06:38:58.842Z,100542.56
2022-08-22T06:41:31.728Z,100544.34
2022-08-22T06:44:01.613Z,100551.38
2022-08-22T06:46:33.265Z,100551.38
2022-08-22T06:49:04.524Z,100555.28
2022-08-22T06:51:37.555Z,100550.25
2022-08-22T06:54:10.225Z,100556.75
2022-08-22T06:56:43.347Z,100550.69
2022-08-22T06:59:16.433Z,100556.34
2022-08-22T07:01:52.259Z,100558.56
2022-08-22T07:04:26.646Z,100564.16
2022-08-22T07:06:58.308Z,100562.03
2022-08-22T07:09:29.577Z,100570.34
2022-08-22T07:12:02.249Z,100565.50
2022-08-22T07:14:33.844Z,100567.69
2022-08-22T07:17:04.906Z,100563.47
2022-08-22T07:19:38.091Z,100570.72
2022-08-22T07:22:15.657Z,100559.78
2022-08-22T07:24:51.703Z,100563.16
2022-08-22T07:27:32.331Z,100549.16
2022-08-22T07:30:10.063Z,100552.41
2022-08-22T07:32:47.450Z,100550.56
2022-08-22T07:35:20.098Z,100552.03
2022-08-22T07:38:00.166Z,100555.59
2022-08-22T07:40:35.139Z,100555.28
2022-08-22T07:43:13.505Z,100555.19
2022-08-22T07:45:50.997Z,100561.88
2022-08-22T07:48:26.210Z,100556.41
2022-08-22T07:51:08.464Z,100553.56
2022-08-22T07:53:42.779Z,100554.91
2022-08-22T07:56:16.665Z,100562.19
2022-08-22T07:58:49.111Z,100560.00
2022-08-22T08:01:21.948Z,100570.84
2022-08-22T08:03:55.212Z,100570.97
2022-08-22T08:06:24.871Z,100566.97
2022-08-22T08:08:56.519Z,100558.84
2022-08-22T08:11:28.185Z,100569.78
2022-08-22T08:14:04.281Z,100565.53
2022-08-22T08:16:41.244Z,100562.56
2022-08-22T08:19:12.194Z,100558.63
2022-08-22T08:21:49.435Z,100570.94
2022-08-22T08:24:24.893Z,100566.44
2022-08-22T08:27:13.927Z,100573.81
2022-08-22T08:29:46.779Z,100567.00
2022-08-22T08:32:15.691Z,100564.59
2022-08-22T08:34:45.325Z,100558.63
2022-08-22T08:37:22.609Z,100564.59
2022-08-22T08:39:57.138Z,100567.28
2022-08-22T08:43:12.976Z,100565.69
2022-08-22T08:45:59.332Z,100560.56
2022-08-22T08:49:06.491Z,100564.03
2022-08-22T08:52:02.351Z,100562.81
2022-08-22T08:54:59.538Z,100558.72
2022-08-22T08:57:50.646Z,100559.66
2022-08-22T09:00:28.994Z,100566.84
2022-08-22T09:03:09.392Z,100564.44
2022-08-22T09:06:08.837Z,100552.38
2022-08-22T09:09:04.908Z,100564.50
2022-08-22T09:12:16.597Z,100561.25
2022-08-22T09:15:11.929Z,100559.94
2022-08-22T09:18:26.941Z,100551.97
2022-08-22T09:21:39.489Z,100547.19
2022-08-22T09:24:30.055Z,100552.72
2022-08-22T09:27:03.000Z,100550.72
2022-08-22T09:29:54.598Z,100553.97
2022-08-22T09:32:36.143Z,100546.78
2022-08-22T09:35:12.520Z,100551.56
2022-08-22T09:37:59.113Z,100549.56
2022-08-22T09:40:36.535Z,100545.53
2022-08-22T09:43:11.077Z,100558.81
2022-08-22T09:45:47.401Z,100560.38
2022-08-22T09:48:35.718Z,100562.81
2022-08-22T09:51:31.803Z,100558.72
2022-08-22T09:54:14.719Z,100553.59
2022-08-22T09:56:55.766Z,100553.59
2022-08-22T09:59:42.652Z,100560.31
2022-08-22T10:02:26.928Z,100555.34
2022-08-22T10:05:07.697Z,100548.88
2022-08-22T10:07:52.890Z,100560.16
2022-08-22T10:10:46.424Z,100555.97
2022-08-22T10:13:26.577Z,100557.94
2022-08-22T10:16:05.743Z,100557.53
2022-08-22T10:18:44.072Z,100556.09
2022-08-22T10:21:32.062Z,100561.88
2022-08-22T10:24:11.830Z,100566.19
2022-08-22T10:26:47.602Z,100561.97
2022-08-22T10:29:52.012Z,100565.94
2022-08-22T10:32:31.816Z,100570.03
2022-08-22T10:35:08.359Z,100568.22
2022-08-22T10:37:46.163Z,100568.22
2022-08-22T10:40:21.419Z,100561.75
2022-08-22T10:42:54.850Z,100566.78
2022-08-22T10:45:36.814Z,100568.09
2022-08-22T10:48:32.624Z,100561.88
2022-08-22T10:51:12.075Z,100564.50
2022-08-22T10:53:57.043Z,100558.75
2022-08-22T10:56:30.685Z,100562.69
2022-08-22T10:59:07.023Z,100558.00
2022-08-22T11:01:57.206Z,100557.41
2022-08-22T11:04:45.016Z,100557.28
2022-08-22T11:07:39.432Z,100561.13
2022-08-22T11:10:22.443Z,100566.41
2022-08-22T11:13:06.051Z,100555.38
2022-08-22T11:16:06.803Z,100561.22
2022-08-22T11:19:15.371Z,100560.19
2022-08-22T11:22:10.223Z,100564.97
2022-08-22T11:25:05.020Z,100559.44
2022-08-22T11:27:45.599Z,100559.19
2022-08-22T11:30:18.775Z,100560.88
2022-08-22T11:33:16.177Z,100560.28
2022-08-22T11:35:51.643Z,100554.00
2022-08-22T11:38:32.664Z,100561.06
2022-08-22T11:41:06.685Z,100559.47
2022-08-22T11:43:52.643Z,100556.28
2022-08-22T11:46:25.901Z,100549.53
2022-08-22T11:49:06.414Z,100547.47
2022-08-22T11:51:57.607Z,100552.03
2022-08-22T11:54:42.292Z,100551.19
2022-08-22T11:57:15.822Z,100551.50
2022-08-22T12:00:05.833Z,100545.72
2022-08-22T12:02:47.603Z,100548.28
2022-08-22T12:05:26.142Z,100551.09
2022-08-22T12:08:03.360Z,100552.81
2022-08-22T12:10:37.144Z,100551.88
2022-08-22T12:13:09.759Z,100556.19
2022-08-22T12:15:48.994Z,100550.66
2022-08-22T12:18:38.974Z,100548.38
2022-08-22T12:21:44.782Z,100552.78
2022-08-22T12:24:36.720Z,100548.22
2022-08-22T12:27:40.572Z,100554.06
2022-08-22T12:30:23.491Z,100556.41
2022-08-22T12:33:22.046Z,100556.94
2022-08-22T12:36:01.113Z,100557.09
2022-08-22T12:38:50.193Z,100559.53
2022-08-22T12:41:46.619Z,100564.44
2022-08-22T12:44:37.594Z,100552.88
2022-08-22T12:47:25.645Z,100565.56
2022-08-22T12:50:15.850Z,100559.75
2022-08-22T12:53:03.478Z,100568.31
2022-08-22T12:56:03.348Z,100565.69
2022-08-22T12:58:51.356Z,100571.81
2022-08-22T13:01:23.418Z,100569.84
2022-08-22T13:04:12.833Z,100567.94
2022-08-22T13:07:11.345Z,100571.81
2022-08-22T13:09:43.274Z,100578.88
2022-08-22T13:12:24.581Z,100581.91
2022-08-22T13:14:56.785Z,100579.50
2022-08-22T13:17:26.336Z,100596.81
2022-08-22T13:20:03.072Z,100585.81
2022-08-22T13:22:36.140Z,100572.66
2022-08-22T13:25:09.889Z,100593.66
2022-08-22T13:27:51.067Z,100591.41
2022-08-22T13:30:22.450Z,100594.78
2022-08-22T13:32:54.584Z,100591.28
2022-08-22T13:35:32.530Z,100598.72
2022-08-22T13:38:08.061Z,100595.91
2022-08-22T13:40:45.412Z,100600.59
2022-08-22T13:43:21.836Z,100595.81
2022-08-22T13:45:55.793Z,100595.81
2022-08-22T13:48:28.895Z,100593.38
2022-08-22T13:51:05.799Z,100586.28
2022-08-22T13:53:45.217Z,100593.13
2022-08-22T13:56:21.834Z,100588.06
2022-08-22T13:58:54.972Z,100591.41
2022-08-22T14:01:35.343Z,100588.91
2022-08-22T14:04:17.745Z,100584.78
2022-08-22T14:07:23.785Z,100578.41
2022-08-22T14:09:57.695Z,100578.00
2022-08-22T14:12:33.535Z,100573.28
2022-08-22T14:15:23.707Z,100568.91
2022-08-22T14:18:03.411Z,100575.28
2022-08-22T14:20:33.943Z,100565.41
2022-08-22T14:23:08.961Z,100571.75
2022-08-22T14:25:39.198Z,100567.19
2022-08-22T14:28:11.142Z,100568.22
2022-08-22T14:30:56.487Z,100568.94
2022-08-22T14:33:33.199Z,100555.88
2022-08-22T14:36:05.772Z,100547.13
2022-08-22T14:38:46.388Z,100545.38
2022-08-22T14:41:52.488Z,100545.81
2022-08-22T14:44:23.607Z,100542.19
2022-08-22T14:46:56.741Z,100544.47
2022-08-22T14:49:30.193Z,100539.44
2022-08-22T14:52:04.001Z,100545.31
2022-08-22T14:54:35.083Z,100545.97
2022-08-22T14:57:12.720Z,100540.50
2022-08-22T14:59:52.527Z,100551.06
2022-08-22T15:02:27.851Z,100548.38
2022-08-22T15:04:57.425Z,100540.22
2022-08-22T15:07:29.714Z,100547.28
2022-08-22T15:10:06.154Z,100553.75
2022-08-22T15:12:38.762Z,100553.84
2022-08-22T15:15:13.913Z,100556.09
2022-08-22T15:17:44.817Z,100550.69
2022-08-22T15:20:27.708Z,100552.94
2022-08-22T15:23:00.392Z,100554.56
2022-08-22T15:25:34.281Z,100553.97
2022-08-22T15:28:13.937Z,100565.28
2022-08-22T15:30:48.475Z,100561.94
2022-08-22T15:33:26.288Z,100555.94
2022-08-22T15:36:12.278Z,100560.31
2022-08-22T15:38:48.419Z,100551.94
2022-08-22T15:41:45.084Z,100545.91
2022-08-22T15:44:32.463Z,100546.81
2022-08-22T15:47:28.480Z,100554.88
2022-08-22T15:50:05.260Z,100545.84
2022-08-22T15:52:59.806Z,100544.91
2022-08-22T15:55:34.422Z,100555.53
2022-08-22T15:58:08.179Z,100551.25
2022-08-22T16:00:43.358Z,100555.38
2022-08-22T16:03:15.940Z,100553.16
2022-08-22T16:05:55.451Z,100559.66
2022-08-22T16:08:28.450Z,100557.25
2022-08-22T16:11:21.108Z,100560.53
2022-08-22T16:14:22.528Z,100554.81
2022-08-22T16:17:04.034Z,100556.88
2022-08-22T16:19:35.661Z,100558.91
2022-08-22T16:22:10.407Z,100565.28
2022-08-22T16:25:05.813Z,100564.25
2022-08-22T16:27:35.789Z,100557.66
2022-08-22T16:30:15.942Z,100557.59
2022-08-22T16:32:56.520Z,100550.03
2022-08-22T16:36:16.787Z,100552.16
2022-08-22T16:38:47.909Z,100550.25
2022-08-22T16:41:29.274Z,100557.59
2022-08-22T16:44:39.813Z,100574.50
2022-08-22T16:47:14.037Z,100564.19
2022-08-22T16:49:57.514Z,100561.56
2022-08-22T16:53:02.392Z,100563.94
2022-08-22T16:55:46.622Z,100571.38
2022-08-22T16:58:50.187Z,100566.34
2022-08-22T17:01:32.282Z,100569.75
2022-08-22T17:04:11.361Z,100571.44
2022-08-22T17:07:02.139Z,100558.69
2022-08-22T17:09:56.348Z,100548.97
2022-08-22T17:12:41.708Z,100552.72
2022-08-22T17:15:22.576Z,100558.22
2022-08-22T17:18:14.716Z,100554.34
2022-08-22T17:20:49.065Z,100543.69
2022-08-22T17:23:30.545Z,100546.22
2022-08-22T17:26:08.994Z,100545.97
2022-08-22T17:28:42.917Z,100544.28
2022-08-22T17:31:18.335Z,100546.44
2022-08-22T17:34:19.583Z,100544.81
2022-08-22T17:36:59.207Z,100549.97
2022-08-22T17:39:56.039Z,100546.50
2022-08-22T17:42:44.945Z,100542.16
2022-08-22T17:45:43.227Z,100542.16
2022-08-22T17:48:33.905Z,100541.22
2022-08-22T17:51:15.228Z,100544.22
2022-08-22T17:54:16.720Z,100541.47
2022-08-22T17:57:03.257Z,100537.13
2022-08-22T17:59:41.036Z,100546.03
2022-08-22T18:02:16.458Z,100545.06
2022-08-22T18:04:52.385Z,100538.22
2022-08-22T18:07:34.756Z,100542.66
2022-08-22T18:10:08.344Z,100544.00
2022-08-22T18:12:45.844Z,100540.53
2022-08-22T18:15:24.267Z,100543.28
2022-08-22T18:17:58.002Z,100541.00
2022-08-22T18:20:32.516Z,100542.69
2022-08-22T18:23:21.657Z,100539.22
2022-08-22T18:26:15.908Z,100546.53
2022-08-22T18:28:50.014Z,100549.88
2022-08-22T18:31:37.753Z,100555.88
2022-08-22T18:34:17.060Z,100549.06
2022-08-22T18:36:55.344Z,100559.06
2022-08-22T18:39:29.072Z,100559.31
2022-08-22T18:42:08.134Z,100567.34
2022-08-22T18:44:40.246Z,100565.78
2022-08-22T18:47:13.464Z,100562.88
2022-08-22T18:49:55.228Z,100564.09
2022-08-22T18:52:36.467Z,100558.69
2022-08-22T18:55:28.154Z,100566.34
2022-08-22T18:58:22.591Z,100568.75
2022-08-22T19:01:16.537Z,100560.34
2022-08-22T19:04:18.178Z,100564.19
2022-08-22T19:07:06.651Z,100559.84
2022-08-22T19:10:06.297Z,100566.19
2022-08-22T19:12:55.823Z,100568.84
2022-08-22T19:15:39.191Z,100567.28
2022-08-22T19:18:34.555Z,100570.38
2022-08-22T19:21:44.173Z,100572.78
2022-08-22T19:24:29.827Z,100583.00
2022-08-22T19:27:31.284Z,100580.47
2022-08-22T19:30:03.261Z,100580.56
2022-08-22T19:33:03.547Z,100582.63
2022-08-22T19:35:43.276Z,100583.44
2022-08-22T19:38:12.602Z,100585.81
2022-08-22T19:40:53.519Z,100585.81
2022-08-22T19:43:29.576Z,100588.81
2022-08-22T19:46:00.055Z,100591.94
2022-08-22T19:48:33.195Z,100582.84
2022-08-22T19:51:24.756Z,100583.00
2022-08-22T19:54:08.043Z,100583.31
2022-08-22T19:56:51.159Z,100585.25
2022-08-22T19:59:31.297Z,100574.91
2022-08-22T20:02:07.354Z,100578.78
2022-08-22T20:05:05.584Z,100583.31
2022-08-22T20:07:47.079Z,100590.03
2022-08-22T20:10:24.636Z,100599.84
2022-08-22T20:13:05.576Z,100600.81
2022-08-22T20:16:03.772Z,100602.00
2022-08-22T20:19:24.115Z,100603.19
2022-08-22T20:22:10.865Z,100601.16
2022-08-22T20:25:03.110Z,100609.91
2022-08-22T20:27:49.950Z,100608.97
2022-08-22T20:30:45.100Z,100617.91
2022-08-22T20:33:26.217Z,100609.06
2022-08-22T20:35:59.183Z,100610.84
2022-08-22T20:38:35.741Z,100619.69
2022-08-22T20:41:16.153Z,100615.50
2022-08-22T20:43:51.608Z,100610.38
2022-08-22T20:46:43.872Z,100606.50
2022-08-22T20:49:18.926Z,100613.66
2022-08-22T20:52:05.566Z,100610.41
2022-08-22T20:54:56.039Z,100612.09
2022-08-22T20:57:46.618Z,100623.38
2022-08-22T21:00:39.075Z,100610.13
2022-08-22T21:03:33.764Z,100616.34
2022-08-22T21:06:26.038Z,100613.41
2022-08-22T21:09:39.046Z,100610.84
2022-08-22T21:12:24.366Z,100604.94
2022-08-22T21:15:13.892Z,100602.44
2022-08-22T21:18:11.904Z,100601.38
2022-08-22T21:21:01.134Z,100608.56
2022-08-22T21:23:43.480Z,100610.13
2022-08-22T21:26:35.034Z,100614.66
2022-08-22T21:29:33.960Z,100610.44
2022-08-22T21:32:33.998Z,100617.72
2022-08-22T21:35:32.307Z,100612.38
2022-08-22T21:38:25.004Z,100612.25
2022-08-22T21:41:10.219Z,100613.59
2022-08-22T21:43:57.996Z,100608.19
2022-08-22T21:46:41.194Z,100605.56
2022-08-22T21:49:32.002Z,100600.66
2022-08-22T21:52:13.213Z,100601.69
2022-08-22T21:55:00.977Z,100599.91
2022-08-22T21:57:50.978Z,100596.97
2022-08-22T22:00:58.066Z,100597.19
2022-08-22T22:03:44.196Z,100597.19
2022-08-22T22:06:32.929Z,100598.34
2022-08-22T22:09:20.938Z,100600.75
2022-08-22T22:12:09.933Z,100602.22
2022-08-22T22:14:53.194Z,100597.06
2022-08-22T22:17:48.058Z,100600.53
2022-08-22T22:20:38.201Z,100603.28
2022-08-22T22:23:20.939Z,100597.28
2022-08-22T22:26:18.955Z,100598.25
2022-08-22T22:29:09.231Z,100596.44
2022-08-22T22:31:51.905Z,100593.09
2022-08-22T22:34:39.926Z,100600.91
2022-08-22T22:37:23.138Z,100598.03
2022-08-22T22:40:14.988Z,100598.88
2022-08-22T22:42:56.128Z,100594.66
2022-08-22T22:45:45.896Z,100596.34
2022-08-22T22:48:34.006Z,100606.38
2022-08-22T22:51:16.568Z,100602.06
2022-08-22T22:54:05.903Z,100609.03
2022-08-22T22:56:54.886Z,100603.75
2022-08-22T22:59:30.134Z,100609.03
2022-08-22T23:02:07.065Z,100604.94
2022-08-22T23:04:38.018Z,100609.56
2022-08-22T23:07:07.706Z,100611.81
2022-08-22T23:09:52.691Z,100609.41
2022-08-22T23:12:35.092Z,100612.25
2022-08-22T23:15:22.894Z,100609.00
2022-08-22T23:18:17.826Z,100606.59
2022-08-22T23:21:17.862Z,100605.13
2022-08-22T23:24:08.837Z,100593.53
2022-08-22T23:26:58.086Z,100599.88
2022-08-22T23:29:39.938Z,100600.72
2022-08-22T23:32:28.157Z,100605.97
2022-08-22T23:35:09.872Z,100597.84
2022-08-22T23:37:51.590Z,100603.75
2022-08-22T23:40:39.933Z,100601.13
2022-08-22T23:43:29.022Z,100600.72
2022-08-22T23:46:04.801Z,100597.28
2022-08-22T23:48:33.283Z,100601.34
2022-08-22T23:51:01.705Z,100590.03
2022-08-22T23:53:29.973Z,100592.66
2022-08-22T23:55:59.325Z,100594.66
2022-08-22T23:58:29.048Z,100594.66
